createdAt,value
2018-05-16T00:02:24.081Z,7.83
2018-05-16T00:04:51.341Z,6.83
2018-05-16T00:07:18.595Z,7.00
2018-05-16T00:09:45.856Z,9.13
2018-05-16T00:12:13.129Z,11.80
2018-05-16T00:14:40.397Z,9.93
2018-05-16T00:17:07.863Z,9.73
2018-05-16T00:19:35.144Z,6.57
2018-05-16T00:22:02.402Z,10.47
2018-05-16T00:24:29.657Z,9.60
2018-05-16T00:26:56.952Z,7.97
2018-05-16T00:29:24.205Z,9.10
2018-05-16T00:31:51.483Z,9.60
2018-05-16T00:34:18.766Z,11.53
2018-05-16T00:36:46.056Z,9.07
2018-05-16T00:39:13.343Z,9.10
2018-05-16T00:41:40.624Z,7.70
2018-05-16T00:44:07.896Z,8.20
2018-05-16T00:46:35.157Z,10.40
2018-05-16T00:49:02.480Z,11.20
2018-05-16T00:51:31.414Z,10.40
2018-05-16T00:53:58.707Z,11.13
2018-05-16T00:56:25.979Z,12.67
2018-05-16T00:58:53.255Z,8.23
2018-05-16T01:01:20.517Z,8.67
2018-05-16T01:03:47.808Z,11.07
2018-05-16T01:06:15.075Z,9.07
2018-05-16T01:08:42.361Z,12.90
2018-05-16T01:11:10.403Z,10.43
2018-05-16T01:13:37.667Z,12.23
2018-05-16T01:16:04.947Z,10.83
2018-05-16T01:18:32.222Z,8.90
2018-05-16T01:20:59.518Z,12.33
2018-05-16T01:23:26.793Z,9.80
2018-05-16T01:25:54.052Z,11.50
2018-05-16T01:28:21.335Z,10.00
2018-05-16T01:30:48.600Z,8.87
2018-05-16T01:33:15.870Z,9.10
2018-05-16T01:35:43.155Z,7.90
2018-05-16T01:38:10.399Z,9.60
2018-05-16T01:40:37.663Z,9.53
2018-05-16T01:43:04.947Z,8.23
2018-05-16T01:45:32.231Z,8.60
2018-05-16T01:47:59.485Z,9.73
2018-05-16T01:50:26.773Z,9.37
2018-05-16T01:52:54.045Z,7.30
2018-05-16T01:55:21.366Z,10.57
2018-05-16T01:57:48.655Z,13.03
2018-05-16T02:00:15.980Z,9.93
2018-05-16T02:02:43.232Z,9.83
2018-05-16T02:05:10.492Z,9.37
2018-05-16T02:07:37.769Z,7.43
2018-05-16T02:10:05.025Z,8.57
2018-05-16T02:12:32.319Z,11.40
2018-05-16T02:14:59.581Z,10.00
2018-05-16T02:17:26.871Z,14.53
2018-05-16T02:19:54.212Z,8.07
2018-05-16T02:22:21.472Z,9.90
2018-05-16T02:24:48.754Z,9.57
2018-05-16T02:27:16.026Z,9.27
2018-05-16T02:29:43.308Z,7.70
2018-05-16T02:32:10.564Z,10.20
2018-05-16T02:34:37.838Z,9.00
2018-05-16T02:37:05.123Z,9.60
2018-05-16T02:39:32.379Z,10.63
2018-05-16T02:41:59.647Z,13.40
2018-05-16T02:44:26.931Z,13.03
2018-05-16T02:46:54.199Z,10.50
2018-05-16T02:49:21.472Z,9.30
2018-05-16T02:51:48.733Z,12.77
2018-05-16T02:54:16.098Z,12.13
2018-05-16T02:56:43.330Z,11.50
2018-05-16T02:59:10.811Z,10.77
2018-05-16T03:01:38.105Z,10.33
2018-05-16T03:04:05.372Z,11.40
2018-05-16T03:06:32.636Z,10.63
2018-05-16T03:08:59.924Z,11.00
2018-05-16T03:11:27.216Z,13.10
2018-05-16T03:13:54.476Z,12.23
2018-05-16T03:16:21.764Z,12.50
2018-05-16T03:18:49.125Z,11.80
2018-05-16T03:21:16.416Z,10.50
2018-05-16T03:23:43.719Z,11.07
2018-05-16T03:26:10.979Z,9.67
2018-05-16T03:28:38.258Z,10.07
2018-05-16T03:31:05.528Z,11.77
2018-05-16T03:33:32.803Z,10.80
2018-05-16T03:36:00.092Z,10.60
2018-05-16T03:38:27.342Z,9.93
2018-05-16T03:40:54.600Z,13.60
2018-05-16T03:43:21.878Z,14.67
2018-05-16T03:45:49.149Z,18.20
2018-05-16T03:48:16.427Z,16.83
2018-05-16T03:50:43.722Z,15.50
2018-05-16T03:53:10.985Z,10.90
2018-05-16T03:55:38.272Z,9.03
2018-05-16T03:58:12.492Z,14.10
2018-05-16T04:00:45.761Z,10.90
2018-05-16T04:03:18.909Z,10.97
2018-05-16T04:05:46.197Z,9.93
2018-05-16T04:08:13.539Z,11.77
2018-05-16T04:10:40.884Z,14.80
2018-05-16T04:13:08.172Z,12.07
2018-05-16T04:15:35.423Z,12.60
2018-05-16T04:18:02.718Z,12.87
2018-05-16T04:20:29.988Z,9.43
2018-05-16T04:22:57.276Z,9.40
2018-05-16T04:25:24.607Z,9.90
2018-05-16T04:27:51.892Z,10.07
2018-05-16T04:30:19.147Z,10.87
2018-05-16T04:32:46.494Z,9.17
2018-05-16T04:35:13.709Z,10.70
2018-05-16T04:37:40.956Z,10.67
2018-05-16T04:40:08.247Z,11.50
2018-05-16T04:42:35.504Z,10.10
2018-05-16T04:45:02.766Z,10.50
2018-05-16T04:47:30.047Z,11.40
2018-05-16T04:49:57.314Z,11.30
2018-05-16T04:52:24.595Z,10.53
2018-05-16T04:54:51.863Z,12.90
2018-05-16T04:57:19.154Z,10.60
2018-05-16T04:59:46.444Z,11.70
2018-05-16T05:02:13.696Z,9.43
2018-05-16T05:04:41.139Z,13.23
2018-05-16T05:07:08.410Z,14.33
2018-05-16T05:09:35.688Z,10.13
2018-05-16T05:12:02.962Z,11.90
2018-05-16T05:14:30.288Z,12.00
2018-05-16T05:16:57.553Z,11.63
2018-05-16T05:19:24.848Z,13.30
2018-05-16T05:21:52.123Z,11.23
2018-05-16T05:24:19.403Z,12.70
2018-05-16T05:26:46.691Z,12.40
2018-05-16T05:29:13.951Z,10.67
2018-05-16T05:31:41.271Z,13.90
2018-05-16T05:34:08.557Z,11.00
2018-05-16T05:36:35.843Z,10.70
2018-05-16T05:39:07.973Z,12.07
2018-05-16T05:41:35.245Z,11.83
2018-05-16T05:44:02.554Z,11.13
2018-05-16T05:46:29.814Z,10.73
2018-05-16T05:48:57.083Z,13.80
2018-05-16T05:51:24.366Z,10.37
2018-05-16T05:53:51.632Z,11.10
2018-05-16T05:56:18.900Z,12.13
2018-05-16T05:58:46.188Z,12.03
2018-05-16T06:01:13.453Z,10.33
2018-05-16T06:03:40.732Z,10.63
2018-05-16T06:06:07.984Z,9.47
2018-05-16T06:08:35.272Z,9.97
2018-05-16T06:11:02.559Z,9.43
2018-05-16T06:13:29.811Z,8.97
2018-05-16T06:15:57.090Z,9.17
2018-05-16T06:18:24.351Z,11.17
2018-05-16T06:20:51.627Z,14.27
2018-05-16T06:23:19.021Z,9.63
2018-05-16T06:25:46.274Z,8.40
2018-05-16T06:28:13.607Z,10.10
2018-05-16T06:30:40.884Z,10.00
2018-05-16T06:33:08.151Z,8.63
2018-05-16T06:35:35.427Z,9.90
2018-05-16T06:38:02.740Z,8.33
2018-05-16T06:40:30.095Z,9.17
2018-05-16T06:42:57.365Z,10.60
2018-05-16T06:45:24.654Z,8.20
2018-05-16T06:47:51.903Z,7.60
2018-05-16T06:50:19.189Z,8.20
2018-05-16T06:52:46.438Z,7.80
2018-05-16T06:55:13.828Z,8.50
2018-05-16T06:57:41.072Z,8.87
2018-05-16T07:00:08.436Z,8.60
2018-05-16T07:02:35.689Z,8.87
2018-05-16T07:05:03.033Z,9.10
2018-05-16T07:07:30.287Z,9.47
2018-05-16T07:09:57.643Z,8.17
2018-05-16T07:12:24.927Z,8.00
2018-05-16T07:14:52.176Z,9.30
2018-05-16T07:17:19.459Z,8.37
2018-05-16T07:19:46.756Z,7.50
2018-05-16T07:22:14.023Z,10.03
2018-05-16T07:24:41.311Z,8.37
2018-05-16T07:27:08.558Z,9.80
2018-05-16T07:29:35.883Z,7.50
2018-05-16T07:32:03.127Z,7.30
2018-05-16T07:34:30.417Z,15.70
2018-05-16T07:36:57.667Z,8.87
2018-05-16T07:39:24.952Z,7.50
2018-05-16T07:42:01.874Z,6.70
2018-05-16T07:44:38.952Z,8.47
2018-05-16T07:47:11.773Z,7.23
2018-05-16T07:49:39.021Z,10.23
2018-05-16T07:52:06.312Z,6.67
2018-05-16T07:54:33.566Z,8.30
2018-05-16T07:57:00.874Z,7.70
2018-05-16T07:59:28.119Z,7.93
2018-05-16T08:01:55.374Z,7.90
2018-05-16T08:04:22.651Z,8.10
2018-05-16T08:06:49.939Z,10.60
2018-05-16T08:09:17.201Z,7.13
2018-05-16T08:11:44.479Z,6.97
2018-05-16T08:14:11.841Z,7.23
2018-05-16T08:16:39.086Z,8.90
2018-05-16T08:19:06.382Z,7.60
2018-05-16T08:21:33.699Z,8.80
2018-05-16T08:24:00.950Z,8.10
2018-05-16T08:26:28.228Z,7.83
2018-05-16T08:28:55.514Z,9.03
2018-05-16T08:31:22.763Z,7.77
2018-05-16T08:33:50.048Z,11.00
2018-05-16T08:36:17.299Z,6.93
2018-05-16T08:38:44.574Z,8.10
2018-05-16T08:41:11.851Z,8.53
2018-05-16T08:43:39.113Z,9.90
2018-05-16T08:46:06.390Z,8.23
2018-05-16T08:48:33.643Z,8.07
2018-05-16T08:51:00.944Z,7.17
2018-05-16T08:53:28.199Z,10.70
2018-05-16T08:55:55.480Z,7.20
2018-05-16T08:58:22.737Z,7.70
2018-05-16T09:00:50.007Z,8.00
2018-05-16T09:03:17.268Z,7.90
2018-05-16T09:05:44.568Z,10.57
2018-05-16T09:08:11.827Z,7.60
2018-05-16T09:10:39.104Z,8.33
2018-05-16T09:13:06.353Z,9.47
2018-05-16T09:15:33.626Z,9.00
2018-05-16T09:18:00.879Z,7.73
2018-05-16T09:20:28.186Z,8.00
2018-05-16T09:22:55.437Z,7.67
2018-05-16T09:25:22.712Z,7.30
2018-05-16T09:27:49.982Z,7.40
2018-05-16T09:30:17.239Z,19.33
2018-05-16T09:32:44.558Z,6.80
2018-05-16T09:35:11.816Z,8.40
2018-05-16T09:37:39.095Z,9.77
2018-05-16T09:40:06.352Z,6.93
2018-05-16T09:42:33.644Z,10.03
2018-05-16T09:45:00.903Z,8.97
2018-05-16T09:47:28.153Z,8.17
2018-05-16T09:49:55.423Z,9.07
2018-05-16T09:52:22.681Z,8.33
2018-05-16T09:54:50.035Z,7.13
2018-05-16T09:57:17.292Z,8.50
2018-05-16T09:59:44.547Z,7.70
2018-05-16T10:02:11.827Z,9.37
2018-05-16T10:04:39.088Z,8.47
2018-05-16T10:07:06.377Z,13.40
2018-05-16T10:09:33.643Z,8.00
2018-05-16T10:12:00.891Z,12.10
2018-05-16T10:14:28.268Z,8.47
2018-05-16T10:16:55.694Z,8.70
2018-05-16T10:19:22.878Z,8.60
2018-05-16T10:21:50.147Z,8.50
2018-05-16T10:24:17.404Z,10.10
2018-05-16T10:26:44.678Z,8.73
2018-05-16T10:29:12.034Z,8.83
2018-05-16T10:31:39.363Z,9.63
2018-05-16T10:34:06.548Z,9.67
2018-05-16T10:36:33.817Z,8.57
2018-05-16T10:39:01.088Z,9.00
2018-05-16T10:41:28.372Z,10.23
2018-05-16T10:43:55.646Z,12.40
2018-05-16T10:46:22.904Z,8.63
2018-05-16T10:48:50.195Z,10.67
2018-05-16T10:51:17.495Z,8.00
2018-05-16T10:53:44.741Z,7.63
2018-05-16T10:56:12.023Z,15.33
2018-05-16T10:58:39.296Z,8.37
2018-05-16T11:01:06.575Z,7.30
2018-05-16T11:03:33.838Z,15.43
2018-05-16T11:06:01.100Z,8.80
2018-05-16T11:08:28.374Z,8.83
2018-05-16T11:10:55.665Z,6.53
2018-05-16T11:13:22.936Z,9.70
2018-05-16T11:15:50.192Z,6.87
2018-05-16T11:18:17.480Z,6.87
2018-05-16T11:20:44.729Z,6.40
2018-05-16T11:23:12.016Z,7.17
2018-05-16T11:25:39.276Z,10.27
2018-05-16T11:28:06.569Z,6.00
2018-05-16T11:30:33.830Z,6.53
2018-05-16T11:33:01.108Z,8.20
2018-05-16T11:35:28.389Z,7.83
2018-05-16T11:37:55.647Z,5.90
2018-05-16T11:40:22.903Z,5.50
2018-05-16T11:42:50.245Z,4.83
2018-05-16T11:45:18.514Z,6.43
2018-05-16T11:47:45.802Z,7.20
2018-05-16T11:50:13.058Z,6.13
2018-05-16T11:52:40.356Z,6.27
2018-05-16T11:55:07.611Z,6.37
2018-05-16T11:57:35.507Z,6.00
2018-05-16T12:00:02.897Z,7.00
2018-05-16T12:02:30.465Z,7.40
2018-05-16T12:04:57.787Z,7.53
2018-05-16T12:07:25.065Z,6.10
2018-05-16T12:09:53.438Z,6.80
2018-05-16T12:12:21.075Z,5.70
2018-05-16T12:14:48.411Z,5.50
2018-05-16T12:17:15.674Z,5.53
2018-05-16T12:19:42.933Z,9.83
2018-05-16T12:22:10.207Z,6.33
2018-05-16T12:24:37.463Z,9.10
2018-05-16T12:27:04.767Z,7.00
2018-05-16T12:29:32.050Z,5.83
2018-05-16T12:31:59.336Z,6.57
2018-05-16T12:34:26.631Z,6.27
2018-05-16T12:36:53.892Z,5.10
2018-05-16T12:39:21.167Z,6.67
2018-05-16T12:41:48.438Z,5.43
2018-05-16T12:44:15.852Z,5.53
2018-05-16T12:46:43.960Z,5.27
2018-05-16T12:49:11.238Z,6.40
2018-05-16T12:51:38.524Z,9.53
2018-05-16T12:54:05.832Z,6.77
2018-05-16T12:56:33.140Z,7.73
2018-05-16T12:59:00.414Z,8.30
2018-05-16T13:01:27.672Z,6.20
2018-05-16T13:03:54.946Z,8.23
2018-05-16T13:06:22.253Z,8.13
2018-05-16T13:08:49.808Z,5.40
2018-05-16T13:11:17.209Z,5.43
2018-05-16T13:13:44.463Z,6.20
2018-05-16T13:16:12.229Z,6.70
2018-05-16T13:18:39.651Z,8.33
2018-05-16T13:21:06.936Z,8.33
2018-05-16T13:23:35.143Z,6.17
2018-05-16T13:26:02.677Z,9.03
2018-05-16T13:28:29.995Z,6.77
2018-05-16T13:30:58.203Z,7.73
2018-05-16T13:33:25.654Z,7.10
2018-05-16T13:35:52.938Z,5.97
2018-05-16T13:38:20.240Z,7.30
2018-05-16T13:40:47.484Z,6.00
2018-05-16T13:43:14.783Z,9.03
2018-05-16T13:45:42.061Z,5.67
2018-05-16T13:48:09.341Z,10.60
2018-05-16T13:50:36.590Z,8.37
2018-05-16T13:53:04.296Z,10.00
2018-05-16T13:55:31.577Z,5.43
2018-05-16T13:57:58.857Z,7.30
2018-05-16T14:00:26.235Z,10.97
2018-05-16T14:02:53.527Z,5.70
2018-05-16T14:05:20.819Z,7.27
2018-05-16T14:07:48.098Z,5.47
2018-05-16T14:10:15.363Z,5.23
2018-05-16T14:12:42.636Z,4.97
2018-05-16T14:15:09.966Z,7.20
2018-05-16T14:17:37.240Z,6.13
2018-05-16T14:20:04.520Z,6.93
2018-05-16T14:22:31.774Z,6.47
2018-05-16T14:24:59.086Z,5.37
2018-05-16T14:27:26.351Z,5.63
2018-05-16T14:29:53.626Z,8.87
2018-05-16T14:32:20.891Z,6.97
2018-05-16T14:34:48.166Z,7.30
2018-05-16T14:37:15.432Z,12.03
2018-05-16T14:39:42.707Z,7.27
2018-05-16T14:42:10.031Z,6.77
2018-05-16T14:44:37.411Z,6.83
2018-05-16T14:47:04.695Z,17.00
2018-05-16T14:49:31.954Z,8.10
2018-05-16T14:51:59.214Z,8.27
2018-05-16T14:54:26.502Z,8.87
2018-05-16T14:56:53.772Z,7.17
2018-05-16T14:59:21.139Z,9.80
2018-05-16T15:01:48.456Z,7.13
2018-05-16T15:04:15.741Z,7.80
2018-05-16T15:06:42.996Z,10.70
2018-05-16T15:09:10.279Z,9.10
2018-05-16T15:11:37.569Z,7.47
2018-05-16T15:14:04.858Z,7.80
2018-05-16T15:16:32.106Z,6.77
2018-05-16T15:18:59.383Z,6.23
2018-05-16T15:21:26.634Z,6.67
2018-05-16T15:23:53.910Z,8.40
2018-05-16T15:26:21.231Z,7.73
2018-05-16T15:28:48.486Z,6.23
2018-05-16T15:31:15.759Z,6.47
2018-05-16T15:33:43.094Z,6.93
2018-05-16T15:36:10.371Z,8.73
2018-05-16T15:38:37.628Z,8.83
2018-05-16T15:41:05.004Z,6.37
2018-05-16T15:43:32.255Z,5.97
2018-05-16T15:45:59.534Z,6.50
2018-05-16T15:48:26.791Z,7.30
2018-05-16T15:50:54.066Z,8.43
2018-05-16T15:53:21.321Z,9.83
2018-05-16T15:55:48.591Z,7.00
2018-05-16T15:58:15.935Z,6.17
2018-05-16T16:00:43.225Z,6.80
2018-05-16T16:03:10.472Z,6.10
2018-05-16T16:05:37.756Z,7.60
2018-05-16T16:08:05.065Z,6.47
2018-05-16T16:10:32.336Z,9.60
2018-05-16T16:12:59.591Z,6.60
2018-05-16T16:15:26.847Z,5.27
2018-05-16T16:17:54.136Z,12.20
2018-05-16T16:20:21.390Z,9.30
2018-05-16T16:22:48.683Z,6.30
2018-05-16T16:25:16.002Z,6.30
2018-05-16T16:27:43.247Z,9.40
2018-05-16T16:30:10.499Z,8.07
2018-05-16T16:32:37.887Z,6.50
2018-05-16T16:35:05.173Z,5.57
2018-05-16T16:37:32.416Z,7.17
2018-05-16T16:39:59.699Z,7.47
2018-05-16T16:42:27.008Z,7.73
2018-05-16T16:44:54.333Z,9.27
2018-05-16T16:47:21.540Z,8.10
2018-05-16T16:49:48.870Z,7.30
2018-05-16T16:52:16.232Z,5.80
2018-05-16T16:54:43.487Z,6.10
2018-05-16T16:57:10.786Z,9.90
2018-05-16T16:59:38.012Z,6.60
2018-05-16T17:02:05.288Z,8.43
2018-05-16T17:04:32.593Z,6.33
2018-05-16T17:06:59.841Z,9.23
2018-05-16T17:09:27.146Z,9.67
2018-05-16T17:11:54.379Z,8.30
2018-05-16T17:14:21.662Z,10.13
2018-05-16T17:16:48.908Z,6.33
2018-05-16T17:19:16.184Z,8.47
2018-05-16T17:21:43.432Z,6.53
2018-05-16T17:24:10.800Z,7.00
2018-05-16T17:26:38.000Z,7.70
2018-05-16T17:29:05.251Z,8.60
2018-05-16T17:31:32.532Z,9.30
2018-05-16T17:36:33.535Z,14.23
2018-05-16T17:39:00.820Z,6.10
2018-05-16T17:41:28.083Z,6.60
2018-05-16T17:43:55.337Z,7.67
2018-05-16T17:46:22.631Z,11.13
2018-05-16T17:48:49.882Z,7.03
2018-05-16T17:51:17.172Z,7.97
2018-05-16T17:53:44.464Z,11.03
2018-05-16T17:56:11.781Z,8.57
2018-05-16T17:58:39.071Z,6.83
2018-05-16T18:01:06.384Z,7.83
2018-05-16T18:03:33.646Z,6.20
2018-05-16T18:06:00.990Z,7.33
2018-05-16T18:08:28.252Z,9.20
2018-05-16T18:10:55.525Z,6.90
2018-05-16T18:13:37.712Z,5.73
2018-05-16T18:16:10.859Z,7.20
2018-05-16T18:18:38.115Z,5.70
2018-05-16T18:21:05.378Z,5.67
2018-05-16T18:23:32.659Z,6.93
2018-05-16T18:26:00.011Z,9.73
2018-05-16T18:28:27.284Z,8.30
2018-05-16T18:30:54.542Z,8.17
2018-05-16T18:33:21.840Z,12.03
2018-05-16T18:35:49.090Z,7.57
2018-05-16T18:38:16.357Z,14.50
2018-05-16T18:40:43.861Z,7.23
2018-05-16T18:43:12.470Z,6.90
2018-05-16T18:45:40.108Z,8.63
2018-05-16T18:48:07.864Z,7.83
2018-05-16T18:50:35.208Z,7.83
2018-05-16T18:53:02.817Z,9.90
2018-05-16T18:55:30.132Z,12.10
2018-05-16T18:57:58.964Z,10.20
2018-05-16T19:00:26.375Z,13.83
2018-05-16T19:02:54.899Z,12.23
2018-05-16T19:05:22.966Z,10.70
2018-05-16T19:07:51.452Z,7.47
2018-05-16T19:10:19.012Z,10.07
2018-05-16T19:12:46.296Z,7.87
2018-05-16T19:15:13.551Z,10.50
2018-05-16T19:17:40.830Z,13.07
2018-05-16T19:20:08.128Z,11.43
2018-05-16T19:22:35.392Z,14.50
2018-05-16T19:25:02.675Z,11.60
2018-05-16T19:27:29.931Z,14.00
2018-05-16T19:29:57.223Z,10.53
2018-05-16T19:32:24.481Z,11.73
2018-05-16T19:34:51.730Z,8.50
2018-05-16T19:37:19.019Z,8.07
2018-05-16T19:39:46.307Z,11.40
2018-05-16T19:42:13.579Z,8.60
2018-05-16T19:44:41.100Z,10.52
2018-05-16T19:47:08.332Z,10.80
2018-05-16T19:49:35.608Z,9.40
2018-05-16T19:52:02.876Z,9.77
2018-05-16T19:54:30.144Z,10.33
2018-05-16T19:56:57.548Z,11.10
2018-05-16T19:59:24.859Z,12.73
2018-05-16T20:01:52.143Z,11.47
2018-05-16T20:04:19.471Z,11.50
2018-05-16T20:06:46.755Z,10.80
2018-05-16T20:09:14.148Z,12.50
2018-05-16T20:11:41.440Z,9.17
2018-05-16T20:14:08.900Z,8.50
2018-05-16T20:16:36.180Z,9.30
2018-05-16T20:19:03.429Z,9.17
2018-05-16T20:21:30.728Z,13.73
2018-05-16T20:23:58.003Z,13.40
2018-05-16T20:26:25.363Z,10.80
2018-05-16T20:28:52.651Z,10.40
2018-05-16T20:31:19.912Z,13.10
2018-05-16T20:33:47.226Z,15.10
2018-05-16T20:36:14.510Z,11.67
2018-05-16T20:38:41.802Z,11.03
2018-05-16T20:41:09.238Z,16.40
2018-05-16T20:43:36.520Z,10.93
2018-05-16T20:46:03.781Z,12.43
2018-05-16T20:48:31.043Z,12.33
2018-05-16T20:50:58.322Z,12.00
2018-05-16T20:53:25.583Z,16.40
2018-05-16T20:55:52.865Z,12.23
2018-05-16T20:58:20.127Z,12.10
2018-05-16T21:00:47.414Z,15.97
2018-05-16T21:03:14.683Z,11.43
2018-05-16T21:05:41.986Z,15.70
2018-05-16T21:08:09.240Z,12.50
2018-05-16T21:10:36.535Z,11.87
2018-05-16T21:13:04.234Z,11.27
2018-05-16T21:15:31.647Z,10.67
2018-05-16T21:17:59.177Z,13.10
2018-05-16T21:20:26.459Z,10.97
2018-05-16T21:22:53.834Z,13.73
2018-05-16T21:25:21.127Z,12.43
2018-05-16T21:27:48.403Z,11.47
2018-05-16T21:30:15.684Z,10.73
2018-05-16T21:32:43.093Z,11.00
2018-05-16T21:35:10.452Z,11.23
2018-05-16T21:37:38.691Z,11.73
2018-05-16T21:40:06.383Z,9.73
2018-05-16T21:42:33.680Z,10.07
2018-05-16T21:45:00.944Z,13.93
2018-05-16T21:47:28.233Z,9.47
2018-05-16T21:49:55.495Z,8.63
2018-05-16T21:52:22.746Z,10.70
2018-05-16T21:54:50.045Z,10.57
2018-05-16T21:57:17.312Z,11.10
2018-05-16T21:59:44.600Z,10.33
2018-05-16T22:02:11.855Z,11.63
2018-05-16T22:04:39.124Z,12.40
2018-05-16T22:07:06.407Z,10.37
2018-05-16T22:09:33.672Z,11.77
2018-05-16T22:12:00.936Z,12.33
2018-05-16T22:14:28.216Z,11.70
2018-05-16T22:16:55.488Z,11.10
2018-05-16T22:19:22.764Z,13.40
2018-05-16T22:21:50.030Z,14.93
2018-05-16T22:24:17.320Z,11.50
2018-05-16T22:26:44.582Z,10.60
2018-05-16T22:29:11.871Z,11.43
2018-05-16T22:31:44.927Z,11.20
2018-05-16T22:34:18.103Z,10.37
2018-05-16T22:36:51.204Z,13.00
2018-05-16T22:39:24.138Z,13.33
2018-05-16T22:41:57.116Z,13.90
2018-05-16T22:44:28.320Z,12.07
2018-05-16T22:46:55.579Z,16.33
2018-05-16T22:49:22.865Z,12.70
2018-05-16T22:51:50.128Z,12.03
2018-05-16T22:54:17.415Z,12.10
2018-05-16T22:56:44.679Z,13.57
2018-05-16T22:59:11.965Z,13.37
2018-05-16T23:01:39.231Z,13.30
2018-05-16T23:04:06.511Z,13.20
2018-05-16T23:06:33.775Z,14.70
2018-05-16T23:09:01.054Z,13.70
2018-05-16T23:11:28.319Z,16.00
2018-05-16T23:13:55.603Z,15.20
2018-05-16T23:16:22.881Z,13.07
2018-05-16T23:18:50.158Z,20.63
2018-05-16T23:21:17.424Z,17.10
2018-05-16T23:23:44.775Z,15.50
2018-05-16T23:26:12.044Z,18.33
2018-05-16T23:28:39.332Z,17.20
2018-05-16T23:31:06.598Z,18.00
2018-05-16T23:33:33.883Z,25.03
2018-05-16T23:36:01.247Z,21.13
2018-05-16T23:38:28.604Z,19.87
2018-05-16T23:40:55.871Z,19.60
2018-05-16T23:43:23.151Z,20.77
2018-05-16T23:45:50.426Z,23.33
2018-05-16T23:48:17.715Z,34.70
2018-05-16T23:50:44.979Z,27.27
2018-05-16T23:53:12.259Z,29.77
2018-05-16T23:55:39.574Z,35.73
2018-05-16T23:58:06.810Z,39.13
